Time;durP1;ratioP1;P1;durP2;ratioP2;P2;SDS_P1;SDS_P2;PMS_P1;PMS_P2;Temp;Humidity;BMP_temperature;BMP_pressure;BME280_temperature;BME280_humidity;BME280_pressure;Samples;Min_cycle;Max_cycle;Signal;HPM_P1;HPM_P2
2022/07/01 00:00:22;;;;;;;3.67;1.02;;;;;;;12.78;100.00;97796.38;5017908;28;20100;-66
2022/07/01 00:02:49;;;;;;;4.07;1.15;;;;;;;12.69;100.00;97799.44;5017499;28;20135;-66
2022/07/01 00:05:17;;;;;;;3.05;0.88;;;;;;;12.86;100.00;97786.41;5015285;28;20054;-66
2022/07/01 00:07:45;;;;;;;2.13;1.00;;;;;;;12.87;100.00;97780.31;5017143;28;20092;-65
2022/07/01 00:10:13;;;;;;;2.10;1.00;;;;;;;13.09;100.00;97784.47;5019442;28;20053;-66
2022/07/01 00:12:41;;;;;;;3.47;1.00;;;;;;;12.93;100.00;97777.41;5015730;28;20119;-64
2022/07/01 00:15:09;;;;;;;2.53;1.00;;;;;;;13.08;100.00;97765.38;5017858;28;20124;-66
2022/07/01 00:17:37;;;;;;;2.17;0.80;;;;;;;13.19;100.00;97763.09;5015810;28;20053;-64
2022/07/01 00:20:05;;;;;;;3.63;0.82;;;;;;;13.32;100.00;97763.34;5019063;28;20045;-66
2022/07/01 00:22:33;;;;;;;2.55;1.00;;;;;;;13.29;100.00;97771.31;5019248;28;20042;-65
2022/07/01 00:25:00;;;;;;;3.40;0.90;;;;;;;12.97;100.00;97783.31;5018187;28;20563;-66
2022/07/01 00:27:28;;;;;;;3.03;1.27;;;;;;;12.79;100.00;97782.44;5017735;28;20081;-64
2022/07/01 00:29:55;;;;;;;2.38;1.00;;;;;;;13.02;100.00;97768.28;5019347;28;20130;-65
2022/07/01 00:32:23;;;;;;;3.47;1.52;;;;;;;13.09;100.00;97774.91;5016244;28;20049;-66
2022/07/01 00:34:50;;;;;;;4.35;1.88;;;;;;;12.98;100.00;97795.44;5016261;28;20078;-66
2022/07/01 00:37:18;;;;;;;2.72;1.67;;;;;;;13.10;100.00;97805.25;5023580;28;20066;-66
2022/07/01 00:39:45;;;;;;;3.50;1.92;;;;;;;13.09;100.00;97808.78;5019863;28;20952;-66
2022/07/01 00:42:13;;;;;;;4.13;1.80;;;;;;;13.09;100.00;97797.50;5022014;28;20773;-66
2022/07/01 00:44:40;;;;;;;4.32;2.53;;;;;;;12.96;100.00;97808.53;5021634;28;20053;-66
2022/07/01 00:47:12;;;;;;;5.30;2.92;;;;;;;12.97;100.00;97820.63;5024806;28;20041;-65
2022/07/01 00:49:40;;;;;;;3.53;2.28;;;;;;;13.27;100.00;97806.16;5005491;28;21867;-68
2022/07/01 00:52:09;;;;;;;7.47;2.50;;;;;;;13.46;100.00;97816.56;5022096;28;20054;-67
2022/07/01 00:54:38;;;;;;;5.10;2.50;;;;;;;13.65;100.00;97812.09;5020870;28;20104;-68
2022/07/01 00:57:10;;;;;;;5.65;3.47;;;;;;;13.65;100.00;97819.91;5036436;28;20045;-67
2022/07/01 00:59:38;;;;;;;5.32;4.00;;;;;;;13.42;100.00;97813.25;5022141;28;20060;-68
2022/07/01 01:02:08;;;;;;;4.15;2.60;;;;;;;13.76;100.00;97811.53;5019173;28;20081;-68
2022/07/01 01:04:36;;;;;;;4.13;2.85;;;;;;;13.76;100.00;97820.22;5021046;28;20057;-68
2022/07/01 01:07:04;;;;;;;4.88;3.83;;;;;;;13.66;100.00;97821.63;5021429;28;20067;-69
2022/07/01 01:09:33;;;;;;;4.93;2.70;;;;;;;13.83;100.00;97820.75;5021286;28;20656;-68
2022/07/01 01:12:01;;;;;;;4.70;3.50;;;;;;;13.17;100.00;97824.88;5018716;28;20420;-68
2022/07/01 01:14:29;;;;;;;5.00;3.25;;;;;;;13.28;100.00;97818.31;5016009;28;20046;-69
2022/07/01 01:16:56;;;;;;;5.60;3.17;;;;;;;12.94;100.00;97820.78;5017594;28;20124;-67
2022/07/01 01:19:23;;;;;;;3.83;2.90;;;;;;;13.03;100.00;97816.06;5018623;28;20124;-68
2022/07/01 01:21:51;;;;;;;6.50;3.33;;;;;;;12.95;100.00;97824.22;5020675;28;20108;-67
2022/07/01 01:24:18;;;;;;;5.65;3.15;;;;;;;13.11;100.00;97826.94;5017931;28;20088;-68
2022/07/01 01:26:45;;;;;;;8.43;4.68;;;;;;;12.91;100.00;97838.34;5019062;28;20141;-68
2022/07/01 01:29:13;;;;;;;5.07;3.90;;;;;;;12.92;100.00;97847.81;5020381;28;20045;-67
2022/07/01 01:31:41;;;;;;;4.90;3.60;;;;;;;13.00;100.00;97848.31;5019855;28;20526;-67
2022/07/01 01:34:08;;;;;;;5.97;4.60;;;;;;;12.86;100.00;97867.19;5019585;28;20139;-67
2022/07/01 01:36:36;;;;;;;4.28;3.53;;;;;;;12.90;100.00;97863.53;5018303;28;20144;-67
2022/07/01 01:39:24;;;;;;;5.50;3.70;;;;;;;12.88;100.00;97872.31;5016469;28;20045;-67
2022/07/01 01:41:51;;;;;;;5.72;3.55;;;;;;;12.90;100.00;97876.53;5020006;28;20132;-67
2022/07/01 01:44:19;;;;;;;5.63;3.85;;;;;;;12.82;100.00;97870.00;5018207;28;20046;-69
2022/07/01 01:46:46;;;;;;;5.00;3.10;;;;;;;13.04;100.00;97869.84;5016681;28;20053;-68
2022/07/01 01:49:14;;;;;;;7.00;3.00;;;;;;;12.85;100.00;97872.50;5018804;28;20048;-69
2022/07/01 01:51:41;;;;;;;4.68;2.63;;;;;;;12.90;100.00;97871.34;5018304;28;20041;-69
2022/07/01 01:54:09;;;;;;;3.70;2.95;;;;;;;12.87;100.00;97870.66;5016412;28;20144;-68
2022/07/01 01:56:36;;;;;;;5.47;3.90;;;;;;;12.82;100.00;97868.28;5020723;28;20145;-68
2022/07/01 01:59:04;;;;;;;3.65;2.70;;;;;;;12.74;100.00;97871.22;5018711;28;20084;-68
2022/07/01 02:01:32;;;;;;;5.00;3.35;;;;;;;12.82;100.00;97875.22;5018214;28;20049;-69
2022/07/01 02:03:59;;;;;;;6.22;3.65;;;;;;;12.74;100.00;97873.81;5017876;28;20156;-68
2022/07/01 02:06:27;;;;;;;4.65;2.63;;;;;;;13.06;100.00;97870.63;5017501;28;20068;-69
2022/07/01 02:08:55;;;;;;;4.30;3.25;;;;;;;12.94;100.00;97862.47;5019398;28;20585;-68
2022/07/01 02:11:22;;;;;;;3.83;2.75;;;;;;;12.98;100.00;97861.41;5018139;28;20088;-68
2022/07/01 02:13:49;;;;;;;3.75;2.60;;;;;;;13.19;100.00;97854.31;5019809;28;20136;-68
2022/07/01 02:16:16;;;;;;;4.72;2.67;;;;;;;13.12;100.00;97857.31;5019134;28;20136;-69
2022/07/01 02:18:44;;;;;;;4.63;2.70;;;;;;;13.38;100.00;97863.88;5019287;28;20061;-69
2022/07/01 02:21:12;;;;;;;8.00;3.33;;;;;;;13.30;100.00;97856.44;5016250;28;20156;-70
2022/07/01 02:23:39;;;;;;;4.40;2.90;;;;;;;13.17;100.00;97847.50;5018215;28;20144;-68
2022/07/01 02:26:06;;;;;;;3.40;2.53;;;;;;;13.45;100.00;97835.72;5015950;28;20181;-68
2022/07/01 02:28:34;;;;;;;5.82;3.67;;;;;;;13.41;100.00;97821.16;5018764;28;20145;-69
2022/07/01 02:31:02;;;;;;;3.95;2.58;;;;;;;13.49;100.00;97803.38;5015622;28;20132;-68
2022/07/01 02:33:30;;;;;;;4.63;2.47;;;;;;;13.38;100.00;97793.47;5016581;28;20577;-69
2022/07/01 02:35:58;;;;;;;5.13;2.58;;;;;;;13.44;100.00;97802.75;5017363;28;20041;-68
2022/07/01 02:38:25;;;;;;;4.78;2.08;;;;;;;13.64;100.00;97812.16;5017665;28;20042;-68
2022/07/01 02:40:53;;;;;;;4.95;3.83;;;;;;;13.09;100.00;97815.72;5013185;28;20110;-69
2022/07/01 02:43:20;;;;;;;4.57;3.15;;;;;;;12.75;100.00;97815.63;5020575;28;20131;-70
2022/07/01 02:45:47;;;;;;;5.40;2.97;;;;;;;12.83;100.00;97807.41;5017293;28;20136;-68
2022/07/01 02:48:15;;;;;;;6.88;3.05;;;;;;;13.00;100.00;97817.03;5018638;28;20049;-69
2022/07/01 02:50:42;;;;;;;5.80;3.10;;;;;;;13.08;100.00;97804.47;5016424;28;20492;-70
2022/07/01 02:53:10;;;;;;;5.25;3.90;;;;;;;12.89;100.00;97809.75;5016887;28;20678;-68
2022/07/01 02:55:37;;;;;;;4.68;3.58;;;;;;;12.75;100.00;97806.97;5018964;28;20488;-69
2022/07/01 02:58:05;;;;;;;5.30;3.63;;;;;;;12.86;100.00;97811.63;5013664;28;20092;-68
2022/07/01 03:00:32;;;;;;;6.63;3.70;;;;;;;12.81;100.00;97817.06;5021592;28;20042;-67
2022/07/01 03:03:00;;;;;;;6.63;3.88;;;;;;;12.95;100.00;97819.00;5019542;28;20084;-67
2022/07/01 03:05:27;;;;;;;7.25;4.40;;;;;;;12.76;100.00;97816.44;5016596;28;20532;-68
2022/07/01 03:07:55;;;;;;;4.15;3.42;;;;;;;13.06;100.00;97819.34;5035245;28;20045;-67
2022/07/01 03:10:22;;;;;;;6.32;4.07;;;;;;;13.11;100.00;97825.19;5017390;28;20164;-68
2022/07/01 03:12:50;;;;;;;5.03;3.35;;;;;;;13.07;100.00;97844.50;5020728;28;20136;-67
2022/07/01 03:15:17;;;;;;;4.90;3.92;;;;;;;12.89;100.00;97835.78;5017303;28;20053;-69
2022/07/01 03:17:46;;;;;;;6.82;4.15;;;;;;;12.91;100.00;97843.53;5017779;28;20428;-67
2022/07/01 03:20:15;;;;;;;5.75;3.67;;;;;;;13.00;100.00;97842.25;5018747;28;20041;-67
2022/07/01 03:22:44;;;;;;;5.55;2.50;;;;;;;13.36;100.00;97848.31;5016042;28;20054;-67
2022/07/01 03:25:12;;;;;;;3.47;2.20;;;;;;;13.48;100.00;97843.38;5016055;28;20073;-68
2022/07/01 03:27:44;;;;;;;6.40;4.00;;;;;;;13.41;100.00;97842.88;5016215;28;20045;-67
2022/07/01 03:30:14;;;;;;;4.82;3.67;;;;;;;13.12;100.00;97846.88;5016590;28;20043;-68
2022/07/01 03:32:42;;;;;;;7.90;4.80;;;;;;;13.25;100.00;97834.94;5017608;28;20053;-67
2022/07/01 03:37:57;;;;;;;6.57;3.85;;;;;;;13.20;100.00;97834.28;5017591;28;20088;-68
2022/07/01 03:40:24;;;;;;;5.22;3.33;;;;;;;13.36;100.00;97831.81;5014812;28;20121;-69
2022/07/01 03:42:52;;;;;;;5.95;3.67;;;;;;;13.35;100.00;97832.75;5014607;28;20125;-68
2022/07/01 03:45:19;;;;;;;6.07;3.63;;;;;;;13.36;100.00;97821.38;5020561;28;20053;-67
2022/07/01 03:47:48;;;;;;;5.95;4.68;;;;;;;13.08;100.00;97824.47;5017480;28;20050;-68
2022/07/01 03:50:16;;;;;;;4.95;3.70;;;;;;;13.33;100.00;97813.72;5018072;28;20046;-69
2022/07/01 03:52:44;;;;;;;7.30;3.88;;;;;;;13.22;100.00;97819.44;5013324;28;20068;-68
2022/07/01 03:55:12;;;;;;;6.05;3.95;;;;;;;13.13;100.00;97818.09;5016061;28;20524;-67
2022/07/01 03:57:40;;;;;;;7.50;4.95;;;;;;;12.88;100.00;97828.88;5016372;28;20457;-67
2022/07/01 04:00:08;;;;;;;7.25;4.18;;;;;;;12.65;100.00;97829.97;5016418;28;20140;-67
2022/07/01 04:02:36;;;;;;;5.88;3.58;;;;;;;12.86;100.00;97835.09;5013632;28;20504;-67
2022/07/01 04:05:03;;;;;;;5.72;3.85;;;;;;;13.02;100.00;97835.19;5013284;28;20145;-66
2022/07/01 04:07:31;;;;;;;6.47;4.63;;;;;;;12.97;100.00;97845.84;5015558;28;20128;-69
2022/07/01 04:09:58;;;;;;;6.30;4.15;;;;;;;12.91;100.00;97853.97;5018755;28;20136;-67
2022/07/01 04:12:26;;;;;;;5.72;4.07;;;;;;;12.88;100.00;97852.31;5017529;28;20146;-68
2022/07/01 04:14:53;;;;;;;7.78;4.20;;;;;;;12.85;100.00;97862.06;5019505;28;20532;-67
2022/07/01 04:17:20;;;;;;;10.90;3.88;;;;;;;12.73;100.00;97866.09;5021089;28;20128;-67
2022/07/01 04:19:47;;;;;;;8.70;4.65;;;;;;;12.85;100.00;97867.28;5022446;28;20472;-66
2022/07/01 04:22:33;;;;;;;7.03;5.22;;;;;;;12.71;100.00;97878.34;5016996;28;20049;-67
2022/07/01 04:25:03;;;;;;;9.27;5.50;;;;;;;12.82;100.00;97877.81;5021157;28;20059;-68
2022/07/01 04:27:31;;;;;;;9.35;6.05;;;;;;;12.83;100.00;97885.56;5017492;28;20085;-67
2022/07/01 04:29:59;;;;;;;7.63;5.32;;;;;;;13.08;100.00;97894.84;5018463;28;20046;-68
2022/07/01 04:32:26;;;;;;;9.15;6.03;;;;;;;12.85;100.00;97882.91;5018908;28;20049;-66
2022/07/01 04:34:56;;;;;;;8.45;4.95;;;;;;;12.87;100.00;97887.13;5022681;28;20045;-67
2022/07/01 04:37:23;;;;;;;10.50;4.95;;;;;;;12.80;100.00;97888.34;5020772;28;20128;-67
2022/07/01 04:39:53;;;;;;;9.93;4.35;;;;;;;12.91;100.00;97887.84;5021080;28;20077;-67
2022/07/01 04:42:21;;;;;;;7.95;4.40;;;;;;;12.95;100.00;97891.97;5019037;28;20636;-67
2022/07/01 04:44:51;;;;;;;5.43;4.22;;;;;;;12.90;100.00;97883.53;5019161;28;20657;-67
2022/07/01 04:47:20;;;;;;;8.63;3.95;;;;;;;13.22;100.00;97875.94;5024101;28;20060;-67
2022/07/01 04:49:48;;;;;;;6.10;3.65;;;;;;;12.93;100.00;97872.94;5022585;28;20563;-67
2022/07/01 04:52:17;;;;;;;4.88;3.47;;;;;;;12.89;100.00;97887.91;5019770;28;20181;-67
2022/07/01 04:54:47;;;;;;;5.38;3.70;;;;;;;12.94;100.00;97879.88;5022433;28;20065;-66
2022/07/01 04:57:16;;;;;;;8.30;2.55;;;;;;;13.12;100.00;97885.97;5019387;28;20077;-68
2022/07/01 04:59:46;;;;;;;6.50;3.67;;;;;;;12.87;100.00;97879.31;5017871;28;20046;-67
2022/07/01 05:02:15;;;;;;;4.32;2.50;;;;;;;12.79;100.00;97876.19;5019800;28;20557;-68
2022/07/01 05:04:45;;;;;;;6.10;2.83;;;;;;;12.88;100.00;97888.78;5022882;28;20124;-67
2022/07/01 05:07:29;;;;;;;7.40;2.80;;;;;;;12.87;100.00;97887.13;5014847;28;20132;-69
2022/07/01 05:10:40;;;;;;;4.70;2.40;;;;;;;12.72;100.00;97873.03;5022484;28;20138;-67
2022/07/01 05:13:09;;;;;;;4.65;2.03;;;;;;;12.91;100.00;97862.63;5017918;28;20077;-67
2022/07/01 05:16:20;;;;;;;6.10;2.03;;;;;;;13.06;100.00;97848.00;5018918;28;20179;-67
2022/07/01 05:22:59;;;;;;;5.82;1.10;;;;;;;12.87;100.00;97855.03;5016551;28;20124;-67
2022/07/01 05:26:15;;;;;;;3.35;1.17;;;;;;;13.00;100.00;97843.09;5019203;28;20463;-68
2022/07/01 05:29:27;;;;;;;2.97;1.00;;;;;;;13.24;100.00;97843.66;5017035;28;20448;-68
2022/07/01 05:32:37;;;;;;;3.25;1.10;;;;;;;12.97;100.00;97835.41;5018564;28;20115;-69
2022/07/01 05:35:48;;;;;;;4.78;1.50;;;;;;;12.96;100.00;97837.19;5020642;28;20085;-68
2022/07/01 05:38:58;;;;;;;3.53;1.75;;;;;;;12.94;100.00;97828.59;5020329;28;20133;-68
2022/07/01 05:42:08;;;;;;;3.53;1.77;;;;;;;13.20;100.00;97831.69;5019183;28;20141;-68
2022/07/01 05:45:19;;;;;;;4.20;1.73;;;;;;;12.98;100.00;97834.50;5017540;28;20137;-68
2022/07/01 05:48:29;;;;;;;4.07;1.60;;;;;;;12.93;100.00;97841.69;5021764;28;20467;-68
2022/07/01 05:51:40;;;;;;;4.53;2.17;;;;;;;12.83;100.00;97856.06;5020439;28;20080;-69
2022/07/01 05:54:11;;;;;;;5.38;2.38;;;;;;;12.89;100.00;97853.19;4979640;28;20054;-68
2022/07/01 05:56:40;;;;;;;4.75;2.83;;;;;;;12.85;100.00;97854.25;4982926;28;20046;-68
2022/07/01 05:59:11;;;;;;;5.40;3.30;;;;;;;12.90;100.00;97865.28;4982734;28;20039;-68
2022/07/01 06:01:38;;;;;;;8.52;3.95;;;;;;;12.89;100.00;97872.28;4983646;28;20076;-67
2022/07/01 06:04:08;;;;;;;5.65;3.53;;;;;;;13.09;100.00;97854.81;4982864;28;20143;-67
2022/07/01 06:06:37;;;;;;;5.15;3.20;;;;;;;13.14;100.00;97856.31;4982929;28;20137;-68
2022/07/01 06:09:07;;;;;;;8.43;3.45;;;;;;;12.98;100.00;97858.81;4979660;28;20572;-68
2022/07/01 06:11:37;;;;;;;9.18;3.25;;;;;;;13.13;100.00;97877.22;4979308;28;20046;-68
2022/07/01 06:14:04;;;;;;;6.63;3.53;;;;;;;13.31;100.00;97888.56;4981550;28;20050;-68
2022/07/01 06:16:33;;;;;;;5.68;3.05;;;;;;;13.21;100.00;97895.13;4983002;28;20048;-69
2022/07/01 06:19:04;;;;;;;5.78;3.50;;;;;;;13.39;100.00;97883.81;4966353;28;20446;-67
2022/07/01 06:22:16;;;;;;;5.88;3.17;;;;;;;13.59;100.00;97878.47;4994822;28;20133;-69
2022/07/01 06:25:25;;;;;;;6.40;2.78;;;;;;;13.82;100.00;97873.81;4998537;28;20145;-69
2022/07/01 06:28:35;;;;;;;5.03;3.30;;;;;;;13.54;100.00;97890.88;4998582;28;22025;-70
2022/07/01 06:31:44;;;;;;;3.67;2.20;;;;;;;13.68;100.00;97886.72;4997742;28;20050;-67
2022/07/01 06:34:53;;;;;;;3.38;2.00;;;;;;;13.73;100.00;97876.91;4979469;28;20496;-68
2022/07/01 06:38:03;;;;;;;4.10;1.65;;;;;;;13.87;100.00;97856.19;4978545;28;20137;-67
2022/07/01 06:41:27;;;;;;;4.13;1.40;;;;;;;13.58;100.00;97860.28;4978354;28;20054;-67
2022/07/01 06:44:37;;;;;;;5.38;1.70;;;;;;;13.33;100.00;97869.31;4978858;28;20466;-67
2022/07/01 06:47:47;;;;;;;4.80;1.67;;;;;;;13.27;100.00;97866.97;4980016;28;20053;-68
2022/07/01 06:50:56;;;;;;;2.78;1.40;;;;;;;13.45;100.00;97887.88;4978567;28;20070;-68
2022/07/01 06:54:06;;;;;;;4.38;1.67;;;;;;;13.59;100.00;97901.06;4980559;28;20441;-68
2022/07/01 06:57:15;;;;;;;4.75;1.40;;;;;;;13.53;100.00;97919.66;4979222;28;20061;-67
2022/07/01 07:00:24;;;;;;;7.70;1.80;;;;;;;13.33;100.00;97934.47;4979537;28;20057;-68
2022/07/01 07:03:34;;;;;;;4.10;1.77;;;;;;;13.27;100.00;97957.34;4975305;28;20061;-67
2022/07/01 07:06:44;;;;;;;3.92;1.63;;;;;;;13.53;100.00;97957.00;4983549;28;20053;-67
2022/07/01 07:09:53;;;;;;;3.60;1.50;;;;;;;13.35;100.00;97963.94;4979818;28;20051;-68
2022/07/01 07:13:02;;;;;;;6.15;2.00;;;;;;;13.57;100.00;97953.31;4976164;28;20077;-67
2022/07/01 07:16:12;;;;;;;5.40;1.40;;;;;;;13.69;100.00;97948.44;4975380;28;20133;-68
2022/07/01 07:19:21;;;;;;;3.95;1.58;;;;;;;13.59;100.00;97922.81;4978533;28;20139;-68
2022/07/01 07:22:31;;;;;;;4.85;1.30;;;;;;;14.16;100.00;97908.63;4971902;28;20050;-67
2022/07/01 07:25:40;;;;;;;5.20;1.42;;;;;;;14.01;100.00;97902.44;4977394;28;20124;-67
2022/07/01 07:28:50;;;;;;;3.65;1.70;;;;;;;14.18;100.00;97905.03;4980312;28;20070;-68
2022/07/01 07:31:59;;;;;;;4.90;1.60;;;;;;;14.03;100.00;97898.00;4977192;28;20046;-67
2022/07/01 07:35:09;;;;;;;4.30;1.42;;;;;;;14.53;100.00;97888.41;4976049;28;20057;-67
2022/07/01 07:38:18;;;;;;;4.30;1.30;;;;;;;14.63;100.00;97880.03;4971079;28;20089;-67
2022/07/01 07:41:28;;;;;;;3.50;1.52;;;;;;;14.41;100.00;97872.50;4975112;28;20061;-68
2022/07/01 07:44:37;;;;;;;4.35;1.33;;;;;;;14.06;100.00;97874.34;4978024;28;20078;-68
2022/07/01 07:47:54;;;;;;;4.72;1.40;;;;;;;14.11;100.00;97868.88;4982521;28;20061;-68
2022/07/01 07:51:04;;;;;;;5.03;1.42;;;;;;;14.34;100.00;97850.22;4979622;28;20183;-69
2022/07/01 07:54:13;;;;;;;4.53;1.30;;;;;;;14.07;100.00;97855.16;4979049;28;20113;-67
2022/07/01 07:57:23;;;;;;;2.75;1.05;;;;;;;14.15;100.00;97858.19;4983184;28;20065;-67
2022/07/01 08:00:32;;;;;;;2.28;0.90;;;;;;;14.57;100.00;97853.41;4982844;28;20134;-68
2022/07/01 08:03:48;;;;;;;3.22;1.10;;;;;;;15.17;100.00;97844.88;4984234;28;20082;-68
2022/07/01 08:06:58;;;;;;;3.17;0.90;;;;;;;15.54;100.00;97838.34;4982971;28;20057;-69
2022/07/01 08:10:08;;;;;;;4.35;1.00;;;;;;;14.91;100.00;97855.00;4978595;28;20135;-68
2022/07/01 08:13:18;;;;;;;2.53;0.82;;;;;;;14.89;100.00;97833.34;4977100;28;20047;-67
2022/07/01 08:16:26;;;;;;;2.17;0.80;;;;;;;15.18;100.00;97836.91;4981220;28;20058;-67
2022/07/01 08:19:35;;;;;;;3.67;0.82;;;;;;;15.05;100.00;97826.34;4980429;28;20133;-67
2022/07/01 08:22:43;;;;;;;3.03;0.90;;;;;;;15.48;100.00;97833.47;4979764;28;20182;-68
2022/07/01 08:25:52;;;;;;;2.67;0.95;;;;;;;14.95;100.00;97847.84;4981446;28;20585;-67
2022/07/01 08:29:01;;;;;;;3.00;0.80;;;;;;;15.12;100.00;97847.75;4981167;28;20408;-68
2022/07/01 08:35:21;;;;;;;2.50;1.13;;;;;;;15.02;100.00;97868.31;4950973;28;20051;-67
2022/07/01 08:38:30;;;;;;;4.25;1.00;;;;;;;15.48;100.00;97863.06;4950318;28;20055;-68
2022/07/01 08:41:40;;;;;;;1.70;0.85;;;;;;;14.93;100.00;97868.00;4949702;28;20050;-68
2022/07/01 08:44:48;;;;;;;4.50;1.10;;;;;;;15.62;100.00;97859.69;4950375;28;20114;-67
2022/07/01 08:47:57;;;;;;;3.47;1.35;;;;;;;15.59;100.00;97872.09;4949661;28;20166;-68
2022/07/01 08:51:06;;;;;;;2.88;1.40;;;;;;;16.40;100.00;97856.78;4950721;28;20061;-69
2022/07/01 08:54:15;;;;;;;3.60;1.20;;;;;;;17.00;100.00;97849.59;4950047;28;20058;-68
2022/07/01 08:57:24;;;;;;;5.32;2.15;;;;;;;17.19;100.00;97850.06;4948849;28;20601;-70
2022/07/01 09:00:44;;;;;;;4.53;2.15;;;;;;;16.38;100.00;97847.34;4953465;28;20058;-70
2022/07/01 09:03:54;;;;;;;3.60;2.53;;;;;;;16.09;100.00;97844.72;4946567;28;20051;-68
2022/07/01 09:07:12;;;;;;;3.90;2.47;;;;;;;16.76;100.00;97857.19;4948349;28;20106;-69
2022/07/01 09:10:22;;;;;;;5.15;2.70;;;;;;;16.38;100.00;97858.66;4949036;28;20058;-69
2022/07/01 09:13:31;;;;;;;5.10;2.80;;;;;;;16.74;100.00;97867.78;4976600;28;20063;-68
2022/07/01 09:16:42;;;;;;;3.95;1.95;;;;;;;16.47;100.00;97858.09;4945220;28;20110;-68
2022/07/01 09:19:52;;;;;;;4.60;2.50;;;;;;;16.59;100.00;97868.75;4948372;28;20194;-68
2022/07/01 09:23:02;;;;;;;5.38;2.38;;;;;;;16.40;100.00;97856.78;4945887;28;20051;-67
2022/07/01 09:26:21;;;;;;;2.88;1.55;;;;;;;16.44;100.00;97860.88;4945972;28;20051;-68
2022/07/01 09:29:38;;;;;;;5.72;1.90;;;;;;;16.68;100.00;97862.94;4949635;28;20788;-68
2022/07/01 09:33:03;;;;;;;2.88;1.00;;;;;;;17.56;100.00;97861.63;4946058;28;20063;-69
2022/07/01 09:36:16;;;;;;;2.20;1.02;;;;;;;17.04;100.00;97857.16;4946165;28;20453;-69
2022/07/01 09:39:30;;;;;;;3.17;1.20;;;;;;;17.06;100.00;97855.28;4947232;28;20147;-68
2022/07/01 09:42:50;;;;;;;1.63;0.80;;;;;;;16.65;100.00;97855.22;4947425;28;20668;-67
2022/07/01 09:46:00;;;;;;;3.75;0.70;;;;;;;17.02;100.00;97842.47;4948767;28;20091;-67
2022/07/01 09:48:34;;;;;;;2.33;0.88;;;;;;;17.48;100.00;97853.41;4942506;28;20051;-68
2022/07/01 09:51:07;;;;;;;4.10;0.70;;;;;;;18.12;100.00;97847.41;4950916;28;20493;-67
2022/07/01 09:53:56;;;;;;;6.10;0.57;;;;;;;18.71;100.00;97846.78;4948004;28;20058;-69
2022/07/01 09:56:29;;;;;;;3.53;0.60;;;;;;;18.49;100.00;97842.22;4950819;28;20061;-67
2022/07/01 09:59:06;;;;;;;2.05;0.60;;;;;;;18.81;100.00;97843.41;4948945;28;20058;-69
2022/07/01 10:01:46;;;;;;;1.00;0.40;;;;;;;20.17;100.00;97838.63;4948192;28;20134;-68
2022/07/01 10:04:17;;;;;;;3.72;0.50;;;;;;;19.21;100.00;97843.16;4947160;28;20062;-68
2022/07/01 10:07:15;;;;;;;3.55;0.55;;;;;;;19.79;100.00;97837.97;4963870;28;20141;-68
2022/07/01 10:09:55;;;;;;;1.55;0.50;;;;;;;21.24;100.00;97830.09;4949450;28;20043;-68
2022/07/01 10:12:42;;;;;;;1.15;0.40;;;;;;;21.57;100.00;97832.72;4950086;28;20050;-68
2022/07/01 10:15:15;;;;;;;1.95;0.40;;;;;;;22.07;100.00;97830.25;4962514;28;20051;-69
2022/07/01 10:17:48;;;;;;;1.20;0.40;;;;;;;20.48;100.00;97837.91;4968073;28;20511;-69
2022/07/01 10:20:23;;;;;;;2.35;0.40;;;;;;;20.11;100.00;97834.66;4963198;28;20047;-69
2022/07/01 10:23:04;;;;;;;1.40;0.40;;;;;;;19.35;100.00;97846.56;4952231;28;20059;-68
2022/07/01 10:25:39;;;;;;;4.43;1.33;;;;;;;18.49;100.00;97844.84;4949767;28;20693;-69
2022/07/01 10:28:47;;;;;;;1.77;0.40;;;;;;;18.13;100.00;97849.06;4966554;28;20079;-69
2022/07/01 10:31:18;;;;;;;1.50;0.40;;;;;;;17.95;100.00;97851.19;4949960;28;20759;-69
2022/07/01 10:34:06;;;;;;;2.75;0.57;;;;;;;18.50;100.00;97846.53;4946180;28;20059;-68
2022/07/01 10:36:40;;;;;;;1.15;0.50;;;;;;;20.72;100.00;97836.94;4949992;28;20059;-69
2022/07/01 10:39:14;;;;;;;2.30;0.50;;;;;;;20.39;100.00;97843.06;4952419;28;20058;-68
2022/07/01 10:42:01;;;;;;;1.08;0.40;;;;;;;21.41;100.00;97838.44;4953278;28;20055;-69
2022/07/01 10:45:09;;;;;;;3.05;0.40;;;;;;;23.65;100.00;97826.88;4950736;28;20117;-68
2022/07/01 10:47:41;;;;;;;1.45;0.40;;;;;;;23.43;100.00;97830.66;4950527;28;20058;-69
2022/07/01 10:50:18;;;;;;;2.13;0.50;;;;;;;21.01;100.00;97839.06;4964327;28;20062;-68
2022/07/01 10:53:02;;;;;;;2.30;0.33;;;;;;;22.84;100.00;97826.25;4947550;28;20067;-69
2022/07/01 10:55:41;;;;;;;1.73;0.38;;;;;;;23.38;100.00;97817.84;4950362;28;20138;-69
2022/07/01 10:58:12;;;;;;;4.38;0.47;;;;;;;24.43;100.00;97818.72;4963227;28;20576;-69
2022/07/01 11:00:52;;;;;;;1.13;0.30;;;;;;;24.17;100.00;97827.31;4948097;28;20061;-68
2022/07/01 11:03:24;;;;;;;2.30;0.50;;;;;;;24.55;100.00;97822.88;4946602;28;20578;-69
2022/07/01 11:05:56;;;;;;;1.95;0.38;;;;;;;24.46;100.00;97830.84;4963301;28;20153;-68
2022/07/01 11:08:27;;;;;;;2.30;0.60;;;;;;;21.24;100.00;97845.94;4949566;28;20353;-70
2022/07/01 11:11:02;;;;;;;1.88;0.50;;;;;;;19.71;100.00;97840.38;4964648;28;20137;-69
2022/07/01 11:13:32;;;;;;;4.07;0.40;;;;;;;19.46;100.00;97849.22;4964929;28;20573;-69
2022/07/01 11:16:00;;;;;;;3.70;0.50;;;22.10;99.90;;;20.00;100.00;97832.00;4951991;28;20129;-70
2022/07/01 11:18:29;;;;;;;2.83;0.40;;;21.40;99.90;;;20.49;100.00;97844.03;4966404;28;20510;-68
2022/07/01 11:21:08;;;;;;;1.45;0.50;;;21.30;99.90;;;19.78;100.00;97849.47;4949775;28;20059;-69
2022/07/01 11:23:54;;;;;;;2.35;0.68;;;;;;;19.02;100.00;97862.06;4945150;28;20050;-69
2022/07/01 11:26:28;;;;;;;2.72;0.52;;;;;;;18.54;100.00;97853.22;4949896;28;20137;-69
2022/07/01 11:28:58;;;;;;;2.85;0.60;;;;;;;19.11;100.00;97849.19;4965008;28;20143;-67
2022/07/01 11:31:33;;;;;;;3.42;0.63;;;;;;;18.86;100.00;97848.38;4951326;28;20086;-68
2022/07/01 11:34:04;;;;;;;1.95;0.60;;;;;;;19.41;100.00;97859.28;4949237;28;20059;-68
2022/07/01 11:39:23;;;;;;;1.98;0.50;;;;;;;20.18;100.00;97849.03;4950936;28;20114;-67
2022/07/01 11:41:58;;;;;;;2.47;0.60;;;;;;;22.02;100.00;97843.88;4953755;28;20055;-67
2022/07/01 11:44:43;;;;;;;3.67;0.60;;;;;;;23.86;100.00;97833.84;4949932;28;20153;-68
2022/07/01 11:47:23;;;;;;;2.15;0.50;;;23.40;99.90;;;23.56;100.00;97839.16;4949953;28;20051;-68
2022/07/01 11:49:50;;;;;;;2.15;0.40;;;24.20;99.90;;;21.88;100.00;97849.50;4965746;28;20944;-71
2022/07/01 11:52:20;;;;;;;3.03;0.75;;;24.00;99.90;;;22.27;100.00;97841.81;4950977;28;20131;-70
2022/07/01 11:54:50;;;;;;;2.15;0.43;;;23.50;99.90;;;22.07;100.00;97849.59;4950914;28;20051;-68
2022/07/01 11:57:23;;;;;;;2.97;0.32;;;23.50;99.90;;;23.68;100.00;97831.88;4951043;28;20083;-68
2022/07/01 11:59:54;;;;;;;4.88;0.50;;;24.00;99.90;;;23.28;100.00;97832.03;4949800;28;20046;-68
2022/07/01 12:02:23;;;;;;;1.92;0.45;;;24.10;99.90;;;22.04;100.00;97831.38;4950972;28;20103;-68
2022/07/01 12:04:52;;;;;;;1.42;0.30;;;23.40;99.90;;;20.42;100.00;97848.94;4949802;28;20142;-68
2022/07/01 12:07:24;;;;;;;0.95;0.30;;;22.30;99.90;;;19.70;100.00;97843.94;4949623;28;20130;-68
2022/07/01 12:09:52;;;;;;;3.60;0.50;;;;;;;19.89;100.00;97842.53;4963973;28;20169;-67
2022/07/01 12:13:20;;;;;;;1.88;0.50;;;;;;;19.95;100.00;97842.91;4969992;28;20139;-67
2022/07/01 12:16:04;;;;;;;1.08;0.30;;;;;;;18.78;100.00;97848.06;4966889;28;20134;-68
2022/07/01 12:18:35;;;;;;;4.07;0.45;;;;;;;18.29;100.00;97859.34;4964558;28;20074;-67
2022/07/01 12:21:52;;;;;;;1.63;0.50;;;;;;;18.71;100.00;97846.78;4949009;28;20141;-69
2022/07/01 12:24:23;;;;;;;1.33;0.40;;;20.30;99.90;;;18.57;100.00;97850.41;4951360;28;20487;-68
2022/07/01 12:27:04;;;;;;;3.08;0.52;;;20.30;99.90;;;19.95;100.00;97836.81;4948905;28;20142;-68
2022/07/01 12:29:46;;;;;;;3.65;0.45;;;20.70;99.90;;;21.36;100.00;97833.50;4946881;28;20510;-69
2022/07/01 12:32:22;;;;;;;2.38;0.50;;;;;;;22.57;100.00;97826.88;4955191;28;20078;-68
2022/07/01 12:35:01;;;;;;;1.67;0.40;;;;;;;22.43;100.00;97836.03;4952588;28;20055;-68
2022/07/01 12:37:35;;;;;;;1.45;0.38;;;;;;;24.46;100.00;97813.13;4955468;28;20055;-68
2022/07/01 12:40:19;;;;;;;3.00;0.30;;;;;;;25.71;100.00;97824.88;4952202;28;20083;-67
2022/07/01 12:42:47;;;;;;;1.85;0.50;;;;;;;24.86;100.00;97832.34;4957239;28;20101;-69